createdAt,value
2023-10-31T00:01:59.454Z,99531.66
2023-10-31T00:05:01.930Z,99529.50
2023-10-31T00:08:04.535Z,99527.25
2023-10-31T00:11:07.069Z,99524.19
2023-10-31T00:14:28.973Z,99512.31
2023-10-31T00:17:32.296Z,99522.66
2023-10-31T00:20:34.681Z,99511.56
2023-10-31T00:23:44.270Z,99513.69
2023-10-31T00:26:46.677Z,99509.41
2023-10-31T00:29:49.116Z,99505.47
2023-10-31T00:32:51.540Z,99509.31
2023-10-31T00:35:53.889Z,99490.53
2023-10-31T00:38:56.202Z,99484.84
2023-10-31T00:41:58.572Z,99475.78
2023-10-31T00:45:00.908Z,99476.00
2023-10-31T00:48:03.858Z,99467.16
2023-10-31T00:51:06.374Z,99468.88
2023-10-31T00:54:08.779Z,99461.06
2023-10-31T00:57:11.212Z,99452.00
2023-10-31T01:00:13.936Z,99447.53
2023-10-31T01:03:16.456Z,99448.09
2023-10-31T01:06:18.887Z,99441.88
2023-10-31T01:09:22.261Z,99431.13
2023-10-31T01:12:24.647Z,99423.09
2023-10-31T01:15:26.990Z,99414.47
2023-10-31T01:18:29.331Z,99417.19
2023-10-31T01:21:31.681Z,99399.75
2023-10-31T01:24:34.093Z,99395.41
2023-10-31T01:27:36.425Z,99376.50
2023-10-31T01:30:38.815Z,99385.91
2023-10-31T01:33:41.337Z,99398.22
2023-10-31T01:36:43.735Z,99378.50
2023-10-31T01:39:46.649Z,99383.09
2023-10-31T01:42:49.648Z,99385.34
2023-10-31T01:45:52.011Z,99392.47
2023-10-31T01:48:54.380Z,99382.31
2023-10-31T01:51:56.692Z,99381.78
2023-10-31T01:55:00.480Z,99376.81
2023-10-31T01:58:03.525Z,99377.13
2023-10-31T02:01:06.589Z,99380.78
2023-10-31T02:04:08.948Z,99383.94
2023-10-31T02:07:11.433Z,99377.38
2023-10-31T02:10:15.049Z,99395.06
2023-10-31T02:13:19.088Z,99391.75
2023-10-31T02:16:21.538Z,99385.75
2023-10-31T02:19:23.975Z,99378.50
2023-10-31T02:22:26.355Z,99373.50
2023-10-31T02:25:28.925Z,99378.78
2023-10-31T02:28:32.053Z,99365.19
2023-10-31T02:31:34.620Z,99365.19
2023-10-31T02:34:37.001Z,99364.25
2023-10-31T02:37:40.297Z,99357.31
2023-10-31T02:40:42.802Z,99361.91
2023-10-31T02:43:45.303Z,99360.34
2023-10-31T02:46:48.024Z,99364.34
2023-10-31T02:49:50.394Z,99360.66
2023-10-31T02:52:52.783Z,99355.47
2023-10-31T02:55:55.194Z,99358.09
2023-10-31T02:58:57.571Z,99357.97
2023-10-31T03:01:59.989Z,99363.50
2023-10-31T03:05:03.277Z,99358.59
2023-10-31T03:08:05.759Z,99369.03
2023-10-31T03:11:08.190Z,99369.34
2023-10-31T03:14:10.593Z,99370.94
2023-10-31T03:17:13.062Z,99372.75
2023-10-31T03:20:15.522Z,99364.63
2023-10-31T03:23:17.895Z,99365.88
2023-10-31T03:26:21.754Z,99362.69
2023-10-31T03:29:24.126Z,99364.06
2023-10-31T03:32:26.528Z,99350.00
2023-10-31T03:35:28.936Z,99357.59
2023-10-31T03:38:31.395Z,99343.09
2023-10-31T03:41:33.846Z,99346.56
2023-10-31T03:44:36.261Z,99342.22
2023-10-31T03:47:38.652Z,99351.41
2023-10-31T03:50:41.045Z,99351.16
2023-10-31T03:53:43.421Z,99349.13
2023-10-31T03:56:46.104Z,99359.88
2023-10-31T03:59:49.106Z,99343.97
2023-10-31T04:02:51.636Z,99352.38
2023-10-31T04:05:54.068Z,99343.97
2023-10-31T04:08:56.766Z,99342.97
2023-10-31T04:11:59.185Z,99349.19
2023-10-31T04:15:01.840Z,99352.84
2023-10-31T04:18:05.015Z,99343.09
2023-10-31T04:21:07.558Z,99350.25
2023-10-31T04:24:09.957Z,99361.13
2023-10-31T04:27:12.337Z,99362.59
2023-10-31T04:30:16.043Z,99365.78
2023-10-31T04:33:18.397Z,99360.81
2023-10-31T04:36:20.762Z,99369.88
2023-10-31T04:39:23.144Z,99376.34
2023-10-31T04:42:25.578Z,99376.25
2023-10-31T04:45:27.909Z,99381.94
2023-10-31T04:48:30.360Z,99381.06
2023-10-31T04:51:39.288Z,99368.59
2023-10-31T04:54:41.724Z,99371.59
2023-10-31T04:57:44.105Z,99367.31
2023-10-31T05:00:46.545Z,99375.84
2023-10-31T05:03:54.206Z,99375.50
2023-10-31T05:07:01.137Z,99368.28
2023-10-31T05:10:03.688Z,99390.34
2023-10-31T05:13:06.759Z,99390.81
2023-10-31T05:16:09.221Z,99363.38
2023-10-31T05:19:11.872Z,99382.91
2023-10-31T05:22:14.253Z,99372.47
2023-10-31T05:25:16.723Z,99382.34
2023-10-31T05:28:19.115Z,99370.31
2023-10-31T05:31:21.489Z,99364.53
2023-10-31T05:34:23.826Z,99364.19
2023-10-31T05:37:26.609Z,99374.59
2023-10-31T05:40:30.562Z,99378.59
2023-10-31T05:43:34.963Z,99379.63
2023-10-31T05:46:43.501Z,99385.84
2023-10-31T05:49:45.945Z,99376.09
2023-10-31T05:52:48.897Z,99389.34
2023-10-31T05:55:51.453Z,99371.88
2023-10-31T05:58:53.825Z,99375.28
2023-10-31T06:01:56.238Z,99375.63
2023-10-31T06:04:58.648Z,99375.06
2023-10-31T06:08:01.047Z,99379.50
2023-10-31T06:11:04.558Z,99381.41
2023-10-31T06:14:06.917Z,99382.66
2023-10-31T06:17:09.331Z,99400.53
2023-10-31T06:20:12.463Z,99399.22
2023-10-31T06:23:14.966Z,99395.81
2023-10-31T06:26:17.426Z,99396.69
2023-10-31T06:29:37.601Z,99379.63
2023-10-31T06:32:42.207Z,99377.44
2023-10-31T06:35:44.666Z,99358.97
2023-10-31T06:38:47.005Z,99361.13
2023-10-31T06:41:49.620Z,99385.72
2023-10-31T06:44:51.982Z,99366.34
2023-10-31T06:47:55.429Z,99363.69
2023-10-31T06:50:57.813Z,99365.81
2023-10-31T06:54:00.145Z,99373.50
2023-10-31T06:57:05.349Z,99379.38
2023-10-31T07:00:10.785Z,99370.16
2023-10-31T07:03:16.487Z,99369.78
2023-10-31T07:06:19.081Z,99376.94
2023-10-31T07:09:21.506Z,99374.63
2023-10-31T07:12:23.860Z,99376.31
2023-10-31T07:15:26.929Z,99364.69
2023-10-31T07:18:29.341Z,99366.59
2023-10-31T07:21:31.725Z,99354.66
2023-10-31T07:24:34.087Z,99361.06
2023-10-31T07:27:36.935Z,99351.28
2023-10-31T07:30:39.300Z,99342.09
2023-10-31T07:33:41.663Z,99336.47
2023-10-31T07:36:44.039Z,99337.81
2023-10-31T07:39:47.166Z,99332.91
2023-10-31T07:42:49.725Z,99328.22
2023-10-31T07:45:52.132Z,99329.84
2023-10-31T07:48:54.521Z,99333.00
2023-10-31T07:51:57.079Z,99350.47
2023-10-31T07:54:59.676Z,99343.19
2023-10-31T07:58:02.012Z,99331.72
2023-10-31T08:01:04.611Z,99329.88
2023-10-31T08:04:07.325Z,99335.66
2023-10-31T08:07:09.830Z,99333.28
2023-10-31T08:10:12.414Z,99336.00
2023-10-31T08:13:14.761Z,99336.06
2023-10-31T08:16:20.645Z,99332.22
2023-10-31T08:19:23.100Z,99332.66
2023-10-31T08:22:25.523Z,99344.78
2023-10-31T08:25:27.879Z,99337.41
2023-10-31T08:28:30.218Z,99347.19
2023-10-31T08:31:32.648Z,99343.97
2023-10-31T08:34:35.158Z,99343.00
2023-10-31T08:37:39.137Z,99327.81
2023-10-31T08:40:42.514Z,99331.44
2023-10-31T08:43:44.841Z,99331.03
2023-10-31T08:46:47.341Z,99330.50
2023-10-31T08:49:49.904Z,99331.88
2023-10-31T08:52:52.265Z,99325.72
2023-10-31T08:55:54.638Z,99317.38
2023-10-31T08:58:57.114Z,99312.47
2023-10-31T09:01:59.542Z,99299.63
2023-10-31T09:05:02.043Z,99294.91
2023-10-31T09:08:05.029Z,99295.19
2023-10-31T09:11:07.415Z,99280.81
2023-10-31T09:14:09.854Z,99278.19
2023-10-31T09:17:12.293Z,99281.09
2023-10-31T09:20:14.725Z,99271.91
2023-10-31T09:23:18.401Z,99263.81
2023-10-31T09:26:21.263Z,99257.53
2023-10-31T09:29:28.661Z,99266.97
2023-10-31T09:32:32.860Z,99249.44
2023-10-31T09:35:35.324Z,99241.34
2023-10-31T09:38:37.677Z,99229.59
2023-10-31T09:41:43.229Z,99215.41
2023-10-31T09:44:45.912Z,99215.16
2023-10-31T09:47:48.465Z,99203.59
2023-10-31T09:50:51.375Z,99200.47
2023-10-31T09:53:55.057Z,99196.00
2023-10-31T09:56:57.564Z,99192.09
2023-10-31T10:00:00.110Z,99184.28
2023-10-31T10:03:02.787Z,99185.09
2023-10-31T10:06:05.830Z,99183.53
2023-10-31T10:09:09.645Z,99181.19
2023-10-31T10:12:15.814Z,99169.38
2023-10-31T10:15:18.161Z,99152.06
2023-10-31T10:18:30.345Z,99140.56
2023-10-31T10:21:47.077Z,99125.59
2023-10-31T10:24:49.472Z,99126.91
2023-10-31T10:27:51.809Z,99121.16
2023-10-31T10:30:54.954Z,99114.31
2023-10-31T10:33:57.369Z,99107.22
2023-10-31T10:36:59.802Z,99094.13
2023-10-31T10:40:02.209Z,99094.66
2023-10-31T10:43:05.028Z,99070.25
2023-10-31T10:46:08.052Z,99061.06
2023-10-31T10:49:10.436Z,99028.56
2023-10-31T10:52:19.703Z,99011.50
2023-10-31T10:55:24.795Z,98984.22
2023-10-31T10:58:47.444Z,99015.16
2023-10-31T11:01:50.008Z,99025.88
2023-10-31T11:04:52.585Z,99021.31
2023-10-31T11:07:57.591Z,99029.81
2023-10-31T11:11:00.115Z,99021.41
2023-10-31T11:14:03.463Z,99036.63
2023-10-31T11:17:15.366Z,99042.69
2023-10-31T11:20:17.956Z,99036.13
2023-10-31T11:23:21.348Z,99041.41
2023-10-31T11:26:23.794Z,99055.13
2023-10-31T11:29:27.167Z,99054.25
2023-10-31T11:32:29.579Z,99076.59
2023-10-31T11:35:32.085Z,99072.72
2023-10-31T11:38:38.857Z,99069.84
2023-10-31T11:41:41.387Z,99053.28
2023-10-31T11:44:55.984Z,99047.59
2023-10-31T11:47:58.568Z,99041.84
2023-10-31T11:51:00.913Z,99022.19
2023-10-31T11:54:03.597Z,99014.09
2023-10-31T11:57:05.978Z,99045.88
2023-10-31T12:00:08.710Z,99081.53
2023-10-31T12:03:21.206Z,99085.22
2023-10-31T12:06:23.780Z,99115.81
2023-10-31T12:09:26.188Z,99277.78
2023-10-31T12:12:33.832Z,99381.38
2023-10-31T12:15:36.492Z,99424.94
2023-10-31T12:18:41.922Z,99395.56
2023-10-31T12:21:48.806Z,99422.31
2023-10-31T12:24:52.202Z,99372.66
2023-10-31T12:27:54.694Z,99376.53
2023-10-31T12:30:57.913Z,99396.91
2023-10-31T12:34:06.305Z,99399.84
2023-10-31T12:37:08.661Z,99422.41
2023-10-31T12:40:11.728Z,99410.69
2023-10-31T12:43:14.625Z,99400.97
2023-10-31T12:46:30.575Z,99419.16
2023-10-31T12:49:32.960Z,99435.78
2023-10-31T12:52:50.889Z,99375.50
2023-10-31T12:55:53.746Z,99379.25
2023-10-31T12:59:00.311Z,99334.00
2023-10-31T13:02:03.043Z,99290.59
2023-10-31T13:05:15.586Z,99298.91
2023-10-31T13:08:18.083Z,99292.66
2023-10-31T13:11:26.720Z,99260.34
2023-10-31T13:14:29.287Z,99251.00
2023-10-31T13:17:33.503Z,99269.16
2023-10-31T13:20:36.039Z,99279.63
2023-10-31T13:23:39.734Z,99289.34
2023-10-31T13:26:42.122Z,99289.84
2023-10-31T13:29:44.511Z,99310.69
2023-10-31T13:32:47.051Z,99296.75
2023-10-31T13:35:49.489Z,99279.00
2023-10-31T13:38:52.110Z,99266.81
2023-10-31T13:41:54.531Z,99297.94
2023-10-31T13:44:56.899Z,99323.47
2023-10-31T13:47:59.269Z,99339.38
2023-10-31T13:51:01.648Z,99371.72
2023-10-31T13:54:04.206Z,99394.13
2023-10-31T13:57:06.665Z,99429.66
2023-10-31T14:00:10.210Z,99402.75
2023-10-31T14:03:16.715Z,99394.69
2023-10-31T14:06:19.227Z,99383.38
2023-10-31T14:09:22.329Z,99387.50
2023-10-31T14:12:24.991Z,99392.56
2023-10-31T14:15:27.336Z,99398.25
2023-10-31T14:18:29.661Z,99414.56
2023-10-31T14:21:32.144Z,99399.09
2023-10-31T14:24:35.641Z,99412.34
2023-10-31T14:27:38.019Z,99414.75
2023-10-31T14:30:40.358Z,99425.16
2023-10-31T14:33:43.467Z,99439.78
2023-10-31T14:36:45.953Z,99434.47
2023-10-31T14:39:48.341Z,99435.81
2023-10-31T14:42:50.755Z,99436.59
2023-10-31T14:45:55.375Z,99448.63
2023-10-31T14:48:57.742Z,99446.59
2023-10-31T14:52:00.242Z,99441.13
2023-10-31T14:55:02.603Z,99448.16
2023-10-31T14:58:05.065Z,99452.13
2023-10-31T15:01:07.567Z,99453.25
2023-10-31T15:04:10.211Z,99435.31
2023-10-31T15:07:13.142Z,99430.78
2023-10-31T15:10:15.500Z,99413.31
2023-10-31T15:13:17.930Z,99417.28
2023-10-31T15:16:20.414Z,99427.16
2023-10-31T15:19:22.869Z,99430.78
2023-10-31T15:22:25.257Z,99442.69
2023-10-31T15:25:27.589Z,99437.50
2023-10-31T15:28:29.988Z,99437.97
2023-10-31T15:31:32.384Z,99422.31
2023-10-31T15:34:34.820Z,99423.31
2023-10-31T15:37:37.337Z,99443.63
2023-10-31T15:40:39.683Z,99450.81
2023-10-31T15:43:42.120Z,99440.50
2023-10-31T15:46:44.661Z,99435.75
2023-10-31T15:49:47.049Z,99445.75
2023-10-31T15:52:49.452Z,99437.06
2023-10-31T15:55:52.243Z,99462.41
2023-10-31T15:58:55.131Z,99461.50
2023-10-31T16:01:57.468Z,99460.38
2023-10-31T16:05:00.258Z,99462.19
2023-10-31T16:08:03.274Z,99453.22
2023-10-31T16:11:05.819Z,99465.66
2023-10-31T16:14:08.243Z,99472.03
2023-10-31T16:17:10.797Z,99485.06
2023-10-31T16:20:13.295Z,99489.34
2023-10-31T16:23:18.537Z,99494.09
2023-10-31T16:26:21.125Z,99502.81
2023-10-31T16:29:23.599Z,99516.28
2023-10-31T16:32:26.028Z,99526.22
2023-10-31T16:35:28.499Z,99529.88
2023-10-31T16:38:30.930Z,99538.34
2023-10-31T16:41:33.671Z,99540.25
2023-10-31T16:44:36.234Z,99551.75
2023-10-31T16:47:38.702Z,99556.84
2023-10-31T16:50:41.134Z,99560.09
2023-10-31T16:53:43.856Z,99571.31
2023-10-31T16:56:46.330Z,99570.50
2023-10-31T16:59:48.894Z,99577.97
2023-10-31T17:02:51.380Z,99573.94
2023-10-31T17:05:53.791Z,99581.81
2023-10-31T17:08:57.864Z,99578.88
2023-10-31T17:12:00.342Z,99590.06
2023-10-31T17:15:02.805Z,99605.91
2023-10-31T17:18:08.625Z,99616.09
2023-10-31T17:21:11.161Z,99627.66
2023-10-31T17:24:15.299Z,99618.19
2023-10-31T17:27:20.739Z,99617.09
2023-10-31T17:30:23.129Z,99637.31
2023-10-31T17:33:29.211Z,99637.38
2023-10-31T17:36:32.390Z,99658.75
2023-10-31T17:39:35.854Z,99650.03
2023-10-31T17:42:38.261Z,99677.19
2023-10-31T17:45:40.593Z,99711.28
2023-10-31T17:48:42.960Z,99693.25
2023-10-31T17:51:45.363Z,99700.19
2023-10-31T17:54:48.141Z,99715.44
2023-10-31T17:57:50.593Z,99709.88
2023-10-31T18:00:53.281Z,99730.59
2023-10-31T18:03:55.728Z,99724.94
2023-10-31T18:06:58.194Z,99722.31
2023-10-31T18:10:00.522Z,99736.38
2023-10-31T18:13:04.400Z,99719.59
2023-10-31T18:16:07.160Z,99737.66
2023-10-31T18:19:09.958Z,99738.56
2023-10-31T18:22:12.314Z,99735.84
2023-10-31T18:25:14.711Z,99732.06
2023-10-31T18:28:17.075Z,99740.50
2023-10-31T18:31:19.509Z,99742.41
2023-10-31T18:34:22.291Z,99803.66
2023-10-31T18:37:24.663Z,99846.50
2023-10-31T18:40:27.006Z,99864.91
2023-10-31T18:43:29.726Z,99869.03
2023-10-31T18:46:32.098Z,99869.94
2023-10-31T18:49:34.509Z,99865.66
2023-10-31T18:52:36.900Z,99853.50
2023-10-31T18:55:39.952Z,99842.06
2023-10-31T18:58:43.607Z,99837.28
2023-10-31T19:01:49.595Z,99835.13
2023-10-31T19:04:52.036Z,99840.34
2023-10-31T19:07:54.441Z,99845.34
2023-10-31T19:10:56.862Z,99846.16
2023-10-31T19:13:59.233Z,99843.03
2023-10-31T19:17:01.642Z,99837.72
2023-10-31T19:20:04.295Z,99852.28
2023-10-31T19:23:06.839Z,99851.34
2023-10-31T19:26:09.247Z,99861.53
2023-10-31T19:29:11.655Z,99872.97
2023-10-31T19:32:14.211Z,99893.59
2023-10-31T19:35:16.794Z,99911.59
2023-10-31T19:38:19.217Z,99909.38
2023-10-31T19:41:21.731Z,99881.97
2023-10-31T19:44:24.146Z,99904.59
2023-10-31T19:47:26.571Z,99924.00
2023-10-31T19:50:29.040Z,99924.59
2023-10-31T19:53:31.499Z,99938.56
2023-10-31T19:56:34.095Z,99920.59
2023-10-31T19:59:39.525Z,99956.97
2023-10-31T20:02:44.504Z,99949.38
2023-10-31T20:05:48.870Z,99964.75
2023-10-31T20:08:51.265Z,99968.19
2023-10-31T20:11:53.600Z,99975.38
2023-10-31T20:15:00.517Z,99981.78
2023-10-31T20:18:04.879Z,99983.59
2023-10-31T20:21:07.502Z,99986.03
2023-10-31T20:24:09.917Z,99991.59
2023-10-31T20:27:12.278Z,99992.78
2023-10-31T20:30:14.692Z,99993.81
2023-10-31T20:33:17.100Z,99997.00
2023-10-31T20:36:19.486Z,99995.00
2023-10-31T20:39:21.893Z,99989.22
2023-10-31T20:42:24.275Z,99998.41
2023-10-31T20:45:26.647Z,100002.59
2023-10-31T20:48:29.036Z,100003.19
2023-10-31T20:51:31.543Z,100006.59
2023-10-31T20:54:33.955Z,100009.19
2023-10-31T20:57:36.364Z,100020.59
2023-10-31T21:00:39.023Z,100020.38
2023-10-31T21:03:41.445Z,100023.78
2023-10-31T21:06:43.914Z,100030.56
2023-10-31T21:09:46.818Z,100030.97
2023-10-31T21:12:49.419Z,100038.56
2023-10-31T21:15:52.752Z,100038.78
2023-10-31T21:18:55.277Z,100043.97
2023-10-31T21:21:57.995Z,100045.75
2023-10-31T21:25:00.468Z,100044.34
2023-10-31T21:28:03.784Z,100056.56
2023-10-31T21:31:06.262Z,100059.16
2023-10-31T21:34:11.589Z,100057.94
2023-10-31T21:37:15.000Z,100063.53
2023-10-31T21:40:17.346Z,100061.75
2023-10-31T21:43:19.755Z,100065.34
2023-10-31T21:46:22.144Z,100070.16
2023-10-31T21:49:25.852Z,100069.72
2023-10-31T21:52:28.327Z,100078.53
2023-10-31T21:55:30.876Z,100078.53
2023-10-31T21:58:33.342Z,100093.31
2023-10-31T22:01:35.800Z,100096.91
2023-10-31T22:04:38.220Z,100099.09
2023-10-31T22:07:40.620Z,100102.28
2023-10-31T22:10:43.062Z,100103.69
2023-10-31T22:13:45.506Z,100101.09
2023-10-31T22:16:47.886Z,100103.50
2023-10-31T22:19:50.224Z,100107.50
2023-10-31T22:22:52.596Z,100105.31
2023-10-31T22:25:55.040Z,100106.69
2023-10-31T22:28:57.503Z,100109.66
2023-10-31T22:31:59.939Z,100109.88
2023-10-31T22:35:02.548Z,100123.47
2023-10-31T22:38:05.223Z,100121.06
2023-10-31T22:41:07.789Z,100127.88
2023-10-31T22:44:10.294Z,100141.22
2023-10-31T22:47:12.813Z,100141.06
2023-10-31T22:50:15.328Z,100142.25
2023-10-31T22:53:17.829Z,100148.81
2023-10-31T22:56:20.215Z,100153.63
2023-10-31T22:59:22.599Z,100164.78
2023-10-31T23:02:25.682Z,100166.19
2023-10-31T23:05:32.000Z,100173.78
2023-10-31T23:08:34.451Z,100178.19
2023-10-31T23:11:36.823Z,100185.97
2023-10-31T23:14:39.205Z,100191.16
2023-10-31T23:17:42.663Z,100189.97
2023-10-31T23:20:45.349Z,100197.75
2023-10-31T23:23:47.742Z,100200.56
2023-10-31T23:26:50.117Z,100208.56
2023-10-31T23:29:52.588Z,100206.53
2023-10-31T23:32:54.931Z,100215.34
2023-10-31T23:35:57.363Z,100219.91
2023-10-31T23:38:59.773Z,100211.31
2023-10-31T23:42:02.142Z,100211.94
2023-10-31T23:45:05.375Z,100231.13
2023-10-31T23:48:10.641Z,100221.75
2023-10-31T23:51:13.055Z,100226.34
2023-10-31T23:54:15.465Z,100230.75
2023-10-31T23:57:17.797Z,100232.56
